Flight Track Log - Related Links

Times and Time Zones

All times are in EDT time to prevent confusion due to time zone crossing. See the N8088H flight status page for this flight to view local times or setup timezone preferences in your user account.


Time Position Orientation Groundspeed Altitude Reporting Facility
EDT Latitude Longitude Course Direction KTS MPH feet Rate Location/Type
Fri 11:11:43 AM 24.8217 -81.1050 341° North 109 125 1,800  Level Miami Center
Fri 11:12:45 AM 24.8519 -81.1181 339° North 110 127 2,000 339 Climbing Miami Center
Fri 11:13:47 AM 24.8814 -81.1333 335° Northwest 112 129 2,500 435 Climbing Miami Center
Fri 11:14:49 AM 24.9111 -81.1486 335° Northwest 114 131 2,900 194 Climbing Miami Center
Fri 11:15:51 AM 24.9508 -81.1614 344° North 119 137 2,900  Level Miami Center
Fri 11:16:53 AM 24.9853 -81.1719 344° North 125 144 2,900  Level Miami Center
Fri 11:17:00 AM 24.9141 -81.1345 341° North  Level FlightAware Approximate
Fri 11:17:55 AM 25.0200 -81.1789 350° North 126 145 2,900  Level Miami Center
Fri 11:18:58 AM 25.0531 -81.1864 348° North 124 143 3,400 480 Climbing Miami Center
Fri 11:20:00 AM 25.0819 -81.1933 348° North 112 129 3,900 484 Climbing Miami Center
Fri 11:21:02 AM 25.1117 -81.2011 347° North 111 128 4,400 484 Climbing Miami Center
Fri 11:22:04 AM 25.1492 -81.2089 349° North 111 128 4,900 435 Climbing Miami Center
Fri 11:23:06 AM 25.1800 -81.2161 348° North 112 129 5,300 387 Climbing Miami Center
Fri 11:24:08 AM 25.2100 -81.2233 348° North 111 128 5,700 432 Climbing Miami Center
Fri 11:25:11 AM 25.2411 -81.2322 346° North 112 129 6,200 480 Climbing Miami Center
Fri 11:26:13 AM 25.2717 -81.2392 348° North 112 129 6,700 484 Climbing Miami Center
Fri 11:27:15 AM 25.3069 -81.2469 349° North 112 129 7,200 484 Climbing Miami Center
Fri 11:28:17 AM 25.3375 -81.2533 349° North 111 128 7,700 387 Climbing Miami Center
Fri 11:29:19 AM 25.3700 -81.2592 351° North 112 129 8,000 97 Climbing Miami Center
Fri 11:30:21 AM 25.4058 -81.2661 350° North 118 136 7,900 -96 Descending Miami Center
Fri 11:31:24 AM 25.4428 -81.2786 343° North 128 147 7,800 -48 Descending Miami Center
Fri 11:32:26 AM 25.4803 -81.2939 340° North 135 155 7,800 48 Level Miami Center
Fri 11:33:28 AM 25.5231 -81.3136 337° Northwest 137 158 7,900 97 Climbing Miami Center
Fri 11:34:30 AM 25.5575 -81.3286 339° North 137 158 8,000 48 Climbing Miami Center
Fri 11:35:32 AM 25.5914 -81.3442 338° Northwest 136 157 8,000 -48 Level Miami Center
Fri 11:36:34 AM 25.6269 -81.3592 339° North 136 157 7,900 -48 Descending Miami Center
Fri 11:37:36 AM 25.6622 -81.3742 339° North 136 157 7,900  Level Miami Center
Fri 11:38:39 AM 25.7031 -81.3911 339° North 136 157 7,900 48 Level Miami Center
Fri 11:39:41 AM 25.7414 -81.4064 340° North 136 157 8,000  Climbing Miami Center
Fri 11:40:43 AM 25.7761 -81.4217 338° Northwest 136 157 7,900  Descending Miami Center
Fri 11:41:45 AM 25.8139 -81.4389 338° Northwest 136 157 8,000 48 Climbing Miami Center
Fri 11:42:47 AM 25.8519 -81.4553 339° North 136 157 8,000  Level Miami Center
Fri 11:43:49 AM 25.8861 -81.4697 339° North 135 155 8,000 -48 Level Miami Center
Fri 11:44:51 AM 25.9236 -81.4858 339° North 135 155 7,900 -48 Descending Miami Center
Fri 11:45:53 AM 25.9586 -81.4972 344° North 134 154 7,900  Level Miami Center
Fri 11:46:55 AM 25.9967 -81.5097 344° North 134 154 7,900  Level Miami Center
Fri 11:47:57 AM 26.0294 -81.5261 336° Northwest 134 154 7,900  Level Miami Center
Fri 11:49:00 AM 26.0644 -81.5458 333° Northwest 133 153 7,900  Level Miami Center
Fri 11:50:02 AM 26.0972 -81.5647 333° Northwest 133 153 7,900  Level Miami Center
Fri 11:51:04 AM 26.1319 -81.5839 334° Northwest 133 153 7,900  Level Miami Center
Fri 11:52:06 AM 26.1650 -81.6017 334° Northwest 132 152 7,900  Level Miami Center
Fri 11:53:08 AM 26.2011 -81.6211 334° Northwest 133 153 7,900  Level Miami Center
Fri 11:54:10 AM 26.2342 -81.6394 334° Northwest 133 153 7,900  Level Miami Center
Fri 11:55:12 AM 26.2703 -81.6603 333° Northwest 133 153 7,900  Level Miami Center
Fri 11:56:14 AM 26.3058 -81.6814 332° Northwest 134 154 7,900  Level Miami Center
Fri 11:57:16 AM 26.3411 -81.7008 334° Northwest 140 161 7,900  Level Miami Center
Fri 11:58:18 AM 26.3786 -81.7211 334° Northwest 140 161 7,900  Level Miami Center
Fri 11:59:20 AM 26.4122 -81.7408 332° Northwest 140 161 7,900  Level Miami Center
Fri 12:00:23 PM 26.4483 -81.7628 331° Northwest 139 160 7,900  Level Miami Center
Fri 12:01:25 PM 26.4825 -81.7833 332° Northwest 139 160 7,900  Level Miami Center
Fri 12:02:27 PM 26.5203 -81.8056 332° Northwest 140 161 7,900  Level Miami Center
Fri 12:03:29 PM 26.5553 -81.8275 331° Northwest 142 163 7,900  Level Miami Center
Fri 12:04:31 PM 26.5908 -81.8478 333° Northwest 145 167 7,900  Level Miami Center
Fri 12:05:33 PM 26.6289 -81.8694 333° Northwest 145 167 7,900  Level Miami Center
Fri 12:06:35 PM 26.6647 -81.8894 333° Northwest 144 166 7,900  Level Miami Center
Fri 12:07:37 PM 26.7033 -81.9111 333° Northwest 144 166 7,900  Level Miami Center
Fri 12:08:39 PM 26.7419 -81.9317 335° Northwest 144 166 7,900  Level Miami Center
Fri 12:09:41 PM 26.7775 -81.9503 335° Northwest 144 166 7,900  Level Miami Center
Fri 12:10:44 PM 26.8169 -81.9708 335° Northwest 144 166 7,900  Level Miami Center
Fri 12:11:46 PM 26.8533 -81.9894 335° Northwest 145 167 7,900  Level Miami Center
Fri 12:12:48 PM 26.8911 -82.0133 331° Northwest 146 168 7,900  Level Miami Center
Fri 12:13:50 PM 26.9253 -82.0358 330° Northwest 144 166 7,900  Level Miami Center
Fri 12:14:52 PM 26.9600 -82.0625 326° Northwest 143 165 7,900  Level Miami Center
Fri 12:15:55 PM 26.9933 -82.0872 327° Northwest 145 167 7,900  Level Miami Center
Fri 12:16:57 PM 27.0294 -82.1136 327° Northwest 145 167 7,900  Level Miami Center
Fri 12:17:59 PM 27.0517 -82.1489 305° West 142 163 7,900  Level Miami Center
Fri 12:19:01 PM 27.0692 -82.1847 299° West 134 154 7,900  Level Miami Center
Fri 12:20:03 PM 27.0872 -82.2211 299° West 133 153 7,900  Level Miami Center
Fri 12:21:06 PM 27.1064 -82.2594 299° West 140 161 7,900  Level Miami Center
Fri 12:22:08 PM 27.1294 -82.3044 300° West 140 161 7,900  Level Miami Center
Fri 12:23:10 PM 27.1483 -82.3417 300° West 140 161 7,900  Level Miami Center
Fri 12:24:12 PM 27.1656 -82.3803 297° West 139 160 7,900  Level Miami Center
Fri 12:24:45 PM 27.1667 -82.4000 274° West 134 154 7,900  Level Tampa TRACON
Fri 12:25:45 PM 27.2000 -82.4333 318° Northwest 133 153 7,900  Level Tampa TRACON
Fri 12:26:45 PM 27.2167 -82.4667 299° West 139 160 7,900  Level Tampa TRACON
Fri 12:27:39 PM 27.2500 -82.4833 336° Northwest 148 170 7,900 -105 Level Tampa TRACON
Fri 12:28:39 PM 27.3000 -82.4833 360° North 150 173 7,700 -300 Descending Tampa TRACON
Fri 12:29:39 PM 27.3333 -82.5000 336° Northwest 158 182 7,300 -381 Descending Tampa TRACON
Fri 12:30:45 PM 27.3833 -82.4833 16° North 153 176 6,900 -273 Descending Tampa TRACON
Fri 12:31:51 PM 27.4333 -82.4833 360° North 145 167 6,700 -238 Descending Tampa TRACON
Fri 12:32:51 PM 27.4667 -82.4667 24° Northeast 147 169 6,400 -333 Descending Tampa TRACON
Fri 12:33:57 PM 27.5167 -82.4667 360° North 151 174 6,000 -556 Descending Tampa TRACON
Fri 12:34:39 PM 27.5500 -82.4667 360° North 160 184 5,400 -889 Descending Tampa TRACON
Fri 12:35:45 PM 27.6000 -82.4500 16° North 170 196 4,400 -818 Descending Tampa TRACON
Fri 12:36:51 PM 27.6500 -82.4500 360° North 169 194 3,600 -571 Descending Tampa TRACON
Fri 12:37:51 PM 27.6833 -82.4333 24° Northeast 152 175 3,200 -421 Descending Tampa TRACON
Fri 12:38:45 PM 27.7167 -82.4167 24° Northeast 150 173 2,800 -526 Descending Tampa TRACON
Fri 12:39:45 PM 27.7667 -82.4000 16° North 153 176 2,200 -522 Descending Tampa TRACON
Fri 12:40:40 PM 27.8000 -82.4000 360° North 153 176 1,800 -436 Descending Tampa TRACON

Login

Don't have an account? Register now (free) for customized features, flight alerts, and more!